Airfield :
LOGIN :

Register | Disclaimer

   EN    FR    IT 

 










Legend :    VFR   Marginal VFR   IFR   Intensive IFR   Very Intensive IFR
Visi :
Ceiling :
>= 8 km
>= 3000ft
5 to 8 km
1000 to 3000 ft
1500m to 5 km
500 to 1000 ft
800 to 1500m
200 to 500 ft
< 800m
< 200 ft
Symbols :   Thunderstorms  Fog  Heavy snow  Heavy precipitations  Wind > 20 kt
SIGMETs :     Misc.  Thunderstorms  Icing  Turbulence  Mountain Waves  Volcanic Ashes






- Airport Elevation : 465 ft
- IATA code : LEJ


EDDP - Leipzig Halle

CURRENT METAR :
  • 201720Z 19011KT CAVOK 07/03 Q1014 NOSIG

EXPIRED METARs :
  • 201650Z 19012KT 9999 FEW033 07/03 Q1014 NOSIG
  • 201620Z 19012KT CAVOK 08/03 Q1015 NOSIG
  • 201550Z 20012KT CAVOK 08/03 Q1015 NOSIG
  • 201520Z 20015KT 9999 FEW030 08/03 Q1015 NOSIG
  • 201450Z 21014KT 9999 FEW030 08/03 Q1016 NOSIG

TAF TAF EDDP
Valid from the 20 at 18:00 until the 21 at 18:00 UTC


201700Z 2018/2118 19013KT 9999 SCT030
PROB30
TEMPO 2022/2101 RA
BECMG 2023/2101 21015G25KT
BECMG 2101/2103 29020G40KT RA BKN012
PROB30
TEMPO 2101/2105 4000 SHRASN BKN008 BKN015CB
BECMG 2103/2106 28015G30KT NSW BKN020
BECMG 2115/2118 24008KT



MET'MAP, your aeronautical weather chart ! - Copyright ORBIFLY December 2007 - Disclaimer

ORBIFLY MET'MAP TEAM :

Programming & Development : Alexandra Zaïnal
Concept & original design : Baudouin d'Aumeries
Assistance for programming : Marc-Olivier Méhu
Technical & hardware support : Manuel Goepfert

Contact : metmap@orbifly.com




SOURCES & CREDITS :

   NOAA